sensor_id;sensor_type;location;lat;lon;timestamp;P1;durP1;ratioP1;P2;durP2;ratioP2
57111;SDS011;42992;49.084;19.300;2024-03-23T07:45:36;21.02;;;14.70;;
57111;SDS011;42992;49.084;19.300;2024-03-23T07:48:11;19.85;;;14.10;;
57111;SDS011;42992;49.084;19.300;2024-03-23T07:56:40;24.08;;;13.73;;
57111;SDS011;42992;49.084;19.300;2024-03-23T07:59:11;19.63;;;14.50;;
57111;SDS011;42992;49.084;19.300;2024-03-23T08:01:55;19.65;;;14.13;;
57111;SDS011;42992;49.084;19.300;2024-03-23T09:17:32;16.50;;;11.90;;
57111;SDS011;42992;49.084;19.300;2024-03-23T09:28:48;16.08;;;12.18;;
57111;SDS011;42992;49.084;19.300;2024-03-23T09:31:17;20.30;;;12.85;;
57111;SDS011;42992;49.084;19.300;2024-03-23T09:33:44;16.13;;;12.25;;
57111;SDS011;42992;49.084;19.300;2024-03-23T09:36:10;20.75;;;13.38;;
57111;SDS011;42992;49.084;19.300;2024-03-23T09:38:35;19.05;;;13.30;;
57111;SDS011;42992;49.084;19.300;2024-03-23T09:41:06;20.42;;;12.90;;
57111;SDS011;42992;49.084;19.300;2024-03-23T09:43:31;17.25;;;12.60;;
57111;SDS011;42992;49.084;19.300;2024-03-23T09:45:57;21.67;;;13.55;;
57111;SDS011;42992;49.084;19.300;2024-03-23T09:48:22;15.70;;;12.10;;
57111;SDS011;42992;49.084;19.300;2024-03-23T09:50:47;20.73;;;13.05;;
57111;SDS011;42992;49.084;19.300;2024-03-23T09:53:14;19.10;;;12.70;;
57111;SDS011;42992;49.084;19.300;2024-03-23T09:55:40;16.52;;;12.00;;
57111;SDS011;42992;49.084;19.300;2024-03-23T09:58:06;16.77;;;12.13;;
57111;SDS011;42992;49.084;19.300;2024-03-23T10:00:32;17.42;;;12.05;;
57111;SDS011;42992;49.084;19.300;2024-03-23T10:03:00;16.45;;;12.95;;
57111;SDS011;42992;49.084;19.300;2024-03-23T10:05:29;22.02;;;12.85;;
57111;SDS011;42992;49.084;19.300;2024-03-23T10:07:57;18.05;;;11.85;;
57111;SDS011;42992;49.084;19.300;2024-03-23T10:10:22;15.20;;;11.88;;
57111;SDS011;42992;49.084;19.300;2024-03-23T10:12:49;15.60;;;11.43;;
57111;SDS011;42992;49.084;19.300;2024-03-23T10:15:18;17.60;;;11.65;;
57111;SDS011;42992;49.084;19.300;2024-03-23T10:17:44;17.77;;;12.35;;
57111;SDS011;42992;49.084;19.300;2024-03-23T10:20:10;16.77;;;11.65;;
57111;SDS011;42992;49.084;19.300;2024-03-23T10:22:37;17.75;;;13.25;;
57111;SDS011;42992;49.084;19.300;2024-03-23T10:25:09;16.15;;;11.57;;
57111;SDS011;42992;49.084;19.300;2024-03-23T10:27:35;16.00;;;10.43;;
57111;SDS011;42992;49.084;19.300;2024-03-23T10:32:35;14.75;;;11.57;;
57111;SDS011;42992;49.084;19.300;2024-03-23T10:35:16;15.63;;;12.32;;
57111;SDS011;42992;49.084;19.300;2024-03-23T10:37:43;17.83;;;11.38;;
57111;SDS011;42992;49.084;19.300;2024-03-23T10:40:12;20.27;;;11.93;;
57111;SDS011;42992;49.084;19.300;2024-03-23T10:42:37;20.73;;;12.35;;
57111;SDS011;42992;49.084;19.300;2024-03-23T10:45:03;18.85;;;11.57;;
57111;SDS011;42992;49.084;19.300;2024-03-23T10:47:29;14.48;;;11.23;;
57111;SDS011;42992;49.084;19.300;2024-03-23T10:49:54;14.95;;;9.90;;
57111;SDS011;42992;49.084;19.300;2024-03-23T10:52:19;18.10;;;9.73;;
57111;SDS011;42992;49.084;19.300;2024-03-23T10:54:45;13.32;;;9.60;;
57111;SDS011;42992;49.084;19.300;2024-03-23T10:57:14;13.43;;;7.45;;
57111;SDS011;42992;49.084;19.300;2024-03-23T10:59:40;15.23;;;6.05;;
57111;SDS011;42992;49.084;19.300;2024-03-23T11:02:05;16.38;;;5.45;;
57111;SDS011;42992;49.084;19.300;2024-03-23T11:04:36;13.23;;;5.60;;
57111;SDS011;42992;49.084;19.300;2024-03-23T11:07:38;8.68;;;5.90;;
57111;SDS011;42992;49.084;19.300;2024-03-23T11:09:56;12.13;;;6.03;;
57111;SDS011;42992;49.084;19.300;2024-03-23T11:14:55;9.18;;;5.10;;
57111;SDS011;42992;49.084;19.300;2024-03-23T11:17:22;8.77;;;4.53;;
57111;SDS011;42992;49.084;19.300;2024-03-23T11:19:52;6.50;;;3.13;;
57111;SDS011;42992;49.084;19.300;2024-03-23T11:22:37;11.63;;;3.45;;
57111;SDS011;42992;49.084;19.300;2024-03-23T11:25:12;8.55;;;3.47;;
57111;SDS011;42992;49.084;19.300;2024-03-23T11:27:37;7.15;;;3.00;;
57111;SDS011;42992;49.084;19.300;2024-03-23T11:30:12;5.00;;;3.17;;
57111;SDS011;42992;49.084;19.300;2024-03-23T11:32:38;5.47;;;3.00;;
57111;SDS011;42992;49.084;19.300;2024-03-23T11:35:03;7.32;;;3.20;;
57111;SDS011;42992;49.084;19.300;2024-03-23T11:37:28;8.13;;;3.15;;
57111;SDS011;42992;49.084;19.300;2024-03-23T11:39:54;6.72;;;3.10;;
57111;SDS011;42992;49.084;19.300;2024-03-23T11:42:19;11.20;;;3.22;;
57111;SDS011;42992;49.084;19.300;2024-03-23T11:44:46;5.40;;;3.30;;
57111;SDS011;42992;49.084;19.300;2024-03-23T11:47:12;6.20;;;3.38;;
57111;SDS011;42992;49.084;19.300;2024-03-23T11:49:37;6.22;;;3.40;;
57111;SDS011;42992;49.084;19.300;2024-03-23T11:52:05;5.70;;;3.30;;
57111;SDS011;42992;49.084;19.300;2024-03-23T11:54:31;5.97;;;3.80;;
57111;SDS011;42992;49.084;19.300;2024-03-23T11:56:57;6.82;;;3.75;;
57111;SDS011;42992;49.084;19.300;2024-03-23T11:59:35;6.25;;;3.40;;
57111;SDS011;42992;49.084;19.300;2024-03-23T12:02:00;7.25;;;3.22;;
57111;SDS011;42992;49.084;19.300;2024-03-23T12:04:30;4.72;;;3.00;;
57111;SDS011;42992;49.084;19.300;2024-03-23T12:09:34;7.22;;;3.70;;
57111;SDS011;42992;49.084;19.300;2024-03-23T12:12:05;6.53;;;3.78;;
57111;SDS011;42992;49.084;19.300;2024-03-23T12:14:30;8.85;;;4.00;;
57111;SDS011;42992;49.084;19.300;2024-03-23T12:16:56;9.10;;;3.83;;
57111;SDS011;42992;49.084;19.300;2024-03-23T12:21:57;7.10;;;3.90;;
57111;SDS011;42992;49.084;19.300;2024-03-23T12:24:22;7.75;;;3.83;;
57111;SDS011;42992;49.084;19.300;2024-03-23T12:26:47;5.88;;;3.85;;
57111;SDS011;42992;49.084;19.300;2024-03-23T12:29:15;6.78;;;3.92;;
57111;SDS011;42992;49.084;19.300;2024-03-23T12:31:40;9.77;;;4.20;;
57111;SDS011;42992;49.084;19.300;2024-03-23T12:34:06;10.32;;;4.05;;
57111;SDS011;42992;49.084;19.300;2024-03-23T12:36:31;7.25;;;4.40;;
57111;SDS011;42992;49.084;19.300;2024-03-23T12:38:56;6.22;;;3.85;;
57111;SDS011;42992;49.084;19.300;2024-03-23T12:41:22;7.97;;;4.13;;
57111;SDS011;42992;49.084;19.300;2024-03-23T12:43:48;7.40;;;4.00;;
57111;SDS011;42992;49.084;19.300;2024-03-23T12:46:14;8.02;;;4.13;;
57111;SDS011;42992;49.084;19.300;2024-03-23T12:48:39;8.70;;;5.15;;
57111;SDS011;42992;49.084;19.300;2024-03-23T12:51:07;7.28;;;4.55;;
57111;SDS011;42992;49.084;19.300;2024-03-23T12:53:32;7.85;;;4.50;;
57111;SDS011;42992;49.084;19.300;2024-03-23T12:55:57;10.05;;;4.82;;
57111;SDS011;42992;49.084;19.300;2024-03-23T12:58:23;7.35;;;4.32;;
57111;SDS011;42992;49.084;19.300;2024-03-23T13:00:48;6.65;;;4.30;;
57111;SDS011;42992;49.084;19.300;2024-03-23T13:03:13;8.07;;;4.97;;
57111;SDS011;42992;49.084;19.300;2024-03-23T13:05:40;6.70;;;4.35;;
57111;SDS011;42992;49.084;19.300;2024-03-23T13:08:05;7.18;;;4.32;;
57111;SDS011;42992;49.084;19.300;2024-03-23T13:10:31;6.55;;;4.47;;
57111;SDS011;42992;49.084;19.300;2024-03-23T13:12:56;8.00;;;3.83;;
57111;SDS011;42992;49.084;19.300;2024-03-23T13:15:21;8.05;;;4.13;;
57111;SDS011;42992;49.084;19.300;2024-03-23T13:17:46;9.80;;;4.07;;
57111;SDS011;42992;49.084;19.300;2024-03-23T13:20:11;6.47;;;3.97;;
57111;SDS011;42992;49.084;19.300;2024-03-23T13:22:40;7.03;;;4.00;;
57111;SDS011;42992;49.084;19.300;2024-03-23T13:25:05;6.20;;;3.72;;
57111;SDS011;42992;49.084;19.300;2024-03-23T13:27:31;7.65;;;3.70;;
57111;SDS011;42992;49.084;19.300;2024-03-23T13:29:56;7.43;;;3.70;;
57111;SDS011;42992;49.084;19.300;2024-03-23T13:32:21;5.82;;;3.92;;
57111;SDS011;42992;49.084;19.300;2024-03-23T13:34:46;10.23;;;4.20;;
57111;SDS011;42992;49.084;19.300;2024-03-23T13:37:15;5.97;;;3.72;;
57111;SDS011;42992;49.084;19.300;2024-03-23T13:39:40;8.68;;;3.95;;
57111;SDS011;42992;49.084;19.300;2024-03-23T13:42:06;8.63;;;3.90;;
57111;SDS011;42992;49.084;19.300;2024-03-23T13:44:34;10.35;;;3.80;;
57111;SDS011;42992;49.084;19.300;2024-03-23T13:46:59;7.65;;;4.10;;
57111;SDS011;42992;49.084;19.300;2024-03-23T13:49:25;7.75;;;4.20;;
57111;SDS011;42992;49.084;19.300;2024-03-23T13:51:54;6.72;;;3.83;;
57111;SDS011;42992;49.084;19.300;2024-03-23T13:54:19;7.05;;;4.40;;
57111;SDS011;42992;49.084;19.300;2024-03-23T13:56:45;6.60;;;3.90;;
57111;SDS011;42992;49.084;19.300;2024-03-23T13:59:10;8.30;;;4.22;;
57111;SDS011;42992;49.084;19.300;2024-03-23T14:01:35;6.70;;;4.35;;
57111;SDS011;42992;49.084;19.300;2024-03-23T14:04:01;9.27;;;4.45;;
57111;SDS011;42992;49.084;19.300;2024-03-23T14:06:26;7.40;;;4.45;;
57111;SDS011;42992;49.084;19.300;2024-03-23T14:08:51;8.18;;;4.22;;
57111;SDS011;42992;49.084;19.300;2024-03-23T14:11:18;7.53;;;4.45;;
57111;SDS011;42992;49.084;19.300;2024-03-23T14:13:43;9.00;;;4.65;;
57111;SDS011;42992;49.084;19.300;2024-03-23T14:16:09;8.02;;;4.50;;
57111;SDS011;42992;49.084;19.300;2024-03-23T14:18:35;7.15;;;4.70;;
57111;SDS011;42992;49.084;19.300;2024-03-23T14:21:00;6.47;;;4.50;;
57111;SDS011;42992;49.084;19.300;2024-03-23T14:23:30;9.27;;;4.68;;
57111;SDS011;42992;49.084;19.300;2024-03-23T14:25:58;7.20;;;4.82;;
57111;SDS011;42992;49.084;19.300;2024-03-23T14:28:25;7.18;;;4.50;;
57111;SDS011;42992;49.084;19.300;2024-03-23T14:30:51;7.47;;;4.63;;
57111;SDS011;42992;49.084;19.300;2024-03-23T14:33:17;7.43;;;4.68;;
57111;SDS011;42992;49.084;19.300;2024-03-23T14:35:43;6.70;;;4.47;;
57111;SDS011;42992;49.084;19.300;2024-03-23T14:38:08;10.38;;;5.07;;
57111;SDS011;42992;49.084;19.300;2024-03-23T14:40:33;8.88;;;4.63;;
57111;SDS011;42992;49.084;19.300;2024-03-23T14:42:58;6.90;;;4.93;;
57111;SDS011;42992;49.084;19.300;2024-03-23T14:45:24;8.00;;;5.30;;
57111;SDS011;42992;49.084;19.300;2024-03-23T14:47:52;6.72;;;5.03;;
57111;SDS011;42992;49.084;19.300;2024-03-23T14:50:17;9.88;;;5.47;;
57111;SDS011;42992;49.084;19.300;2024-03-23T14:52:46;10.27;;;5.10;;
57111;SDS011;42992;49.084;19.300;2024-03-23T14:55:11;7.85;;;4.95;;
57111;SDS011;42992;49.084;19.300;2024-03-23T14:57:37;10.95;;;5.20;;
57111;SDS011;42992;49.084;19.300;2024-03-23T15:00:05;6.65;;;4.82;;
57111;SDS011;42992;49.084;19.300;2024-03-23T15:02:30;10.27;;;4.93;;
57111;SDS011;42992;49.084;19.300;2024-03-23T15:04:57;8.65;;;5.32;;
57111;SDS011;42992;49.084;19.300;2024-03-23T15:07:22;6.75;;;5.00;;
57111;SDS011;42992;49.084;19.300;2024-03-23T15:09:47;8.32;;;5.28;;
57111;SDS011;42992;49.084;19.300;2024-03-23T15:12:13;9.18;;;5.45;;
57111;SDS011;42992;49.084;19.300;2024-03-23T15:14:38;6.90;;;5.10;;
57111;SDS011;42992;49.084;19.300;2024-03-23T15:17:03;7.80;;;5.05;;
57111;SDS011;42992;49.084;19.300;2024-03-23T15:19:32;7.45;;;4.90;;
57111;SDS011;42992;49.084;19.300;2024-03-23T15:21:57;9.63;;;5.68;;
57111;SDS011;42992;49.084;19.300;2024-03-23T15:24:22;8.32;;;5.30;;
57111;SDS011;42992;49.084;19.300;2024-03-23T15:26:48;11.02;;;5.15;;
57111;SDS011;42992;49.084;19.300;2024-03-23T15:29:18;8.57;;;5.88;;
57111;SDS011;42992;49.084;19.300;2024-03-23T15:31:43;7.78;;;5.20;;
57111;SDS011;42992;49.084;19.300;2024-03-23T15:34:08;7.50;;;5.10;;
57111;SDS011;42992;49.084;19.300;2024-03-23T15:36:37;7.60;;;5.05;;
57111;SDS011;42992;49.084;19.300;2024-03-23T15:39:03;8.98;;;4.47;;
57111;SDS011;42992;49.084;19.300;2024-03-23T15:41:28;8.63;;;3.10;;
57111;SDS011;42992;49.084;19.300;2024-03-23T15:43:54;7.00;;;2.03;;
57111;SDS011;42992;49.084;19.300;2024-03-23T15:46:25;6.25;;;2.25;;
57111;SDS011;42992;49.084;19.300;2024-03-23T16:15:54;1.23;;;0.50;;
57111;SDS011;42992;49.084;19.300;2024-03-23T17:13:15;3.35;;;1.20;;
57111;SDS011;42992;49.084;19.300;2024-03-23T17:16:14;4.55;;;1.92;;
57111;SDS011;42992;49.084;19.300;2024-03-23T17:18:59;4.30;;;1.70;;
57111;SDS011;42992;49.084;19.300;2024-03-23T17:22:14;4.00;;;1.55;;
